createdAt,value
2023-03-23T15:59:10.262Z,52.01
2023-03-23T16:01:39.976Z,52.90
2023-03-23T16:04:10.264Z,53.54
2023-03-23T16:06:38.394Z,53.20
2023-03-23T16:09:11.026Z,52.64
2023-03-23T16:11:38.775Z,52.93
2023-03-23T16:14:06.237Z,52.06
2023-03-23T16:16:38.676Z,51.74
2023-03-23T16:19:06.733Z,50.30
2023-03-23T16:21:34.658Z,50.49
2023-03-23T16:24:02.295Z,50.81
2023-03-23T16:26:31.367Z,50.75
2023-03-23T16:29:09.625Z,49.80
2023-03-23T16:31:40.450Z,50.51
2023-03-23T16:34:09.072Z,50.94
2023-03-23T16:36:37.130Z,51.60
2023-03-23T16:39:04.645Z,52.27
2023-03-23T16:41:33.730Z,52.93
2023-03-23T16:44:01.211Z,52.30
2023-03-23T16:46:29.533Z,51.46
2023-03-23T16:48:57.070Z,51.18
2023-03-23T16:51:24.557Z,50.87
2023-03-23T16:53:52.031Z,50.78
2023-03-23T16:56:19.777Z,50.19
2023-03-23T16:58:48.562Z,50.96
2023-03-23T17:01:16.079Z,51.24
2023-03-23T17:03:44.176Z,51.75
2023-03-23T17:06:11.776Z,53.70
2023-03-23T17:08:39.249Z,53.70
2023-03-23T17:11:07.126Z,53.49
2023-03-23T17:13:34.601Z,53.06
2023-03-23T17:16:03.518Z,52.95
2023-03-23T17:18:31.486Z,54.78
2023-03-23T17:20:58.971Z,57.39
2023-03-23T17:23:26.537Z,59.12
2023-03-23T17:25:54.075Z,63.77
2023-03-23T17:28:21.611Z,65.75
2023-03-23T17:30:49.448Z,67.68
2023-03-23T17:33:18.248Z,68.89
2023-03-23T17:35:47.349Z,66.74
2023-03-23T17:38:15.381Z,64.46
2023-03-23T17:40:42.866Z,63.61
2023-03-23T17:43:10.397Z,63.91
2023-03-23T17:45:37.913Z,63.59
2023-03-23T17:48:07.716Z,63.57
2023-03-23T17:50:37.183Z,63.81
2023-03-23T17:53:04.978Z,63.74
2023-03-23T17:55:32.568Z,64.52
2023-03-23T17:58:00.069Z,65.18
2023-03-23T18:00:27.572Z,66.85
2023-03-23T18:02:56.371Z,72.37
2023-03-23T18:05:24.534Z,72.78
2023-03-23T18:07:53.341Z,78.91
2023-03-23T18:10:21.480Z,81.81
2023-03-23T18:12:50.773Z,82.25
2023-03-23T18:15:19.118Z,84.92
2023-03-23T18:17:48.201Z,86.10
2023-03-23T18:20:16.478Z,91.19
2023-03-23T18:22:44.281Z,90.49
2023-03-23T18:25:13.092Z,89.92
2023-03-23T18:27:40.669Z,89.33
2023-03-23T18:30:09.581Z,86.51
2023-03-23T18:32:37.616Z,87.75
2023-03-23T18:35:06.363Z,86.25
2023-03-23T18:37:34.311Z,86.63
2023-03-23T18:40:02.168Z,85.49
2023-03-23T18:42:31.090Z,85.76
2023-03-23T18:44:59.813Z,82.86
2023-03-23T18:47:27.499Z,81.48
2023-03-23T18:49:55.937Z,80.33
2023-03-23T18:52:26.046Z,78.07
2023-03-23T18:54:54.738Z,78.07
2023-03-23T18:57:22.609Z,77.09
2023-03-23T18:59:51.602Z,76.14
2023-03-23T19:02:19.960Z,75.92
2023-03-23T19:04:48.261Z,76.43
2023-03-23T19:07:17.610Z,76.98
2023-03-23T19:09:47.354Z,76.36
2023-03-23T19:12:15.581Z,84.72
2023-03-23T19:14:43.609Z,84.29
2023-03-23T19:17:12.782Z,84.91
2023-03-23T19:19:43.040Z,84.31
2023-03-23T19:22:11.268Z,85.43
2023-03-23T19:24:38.833Z,84.92
2023-03-23T19:27:06.388Z,82.31
2023-03-23T19:29:34.858Z,80.12
2023-03-23T19:32:02.804Z,79.91
2023-03-23T19:34:32.444Z,81.60
2023-03-23T19:37:05.471Z,80.45
2023-03-23T19:39:34.454Z,78.86
2023-03-23T19:42:02.116Z,76.54
2023-03-23T19:44:29.677Z,77.93
2023-03-23T19:46:57.639Z,78.14
2023-03-23T19:49:25.961Z,78.53
2023-03-23T19:52:09.004Z,77.23
2023-03-23T19:54:38.412Z,76.98
2023-03-23T19:57:06.016Z,76.51
2023-03-23T19:59:33.659Z,76.23
2023-03-23T20:02:02.184Z,74.18
2023-03-23T20:04:29.924Z,74.10
2023-03-23T20:07:00.098Z,75.93
2023-03-23T20:09:27.632Z,76.13
2023-03-23T20:11:55.109Z,76.66
2023-03-23T20:14:22.630Z,78.14
2023-03-23T20:16:50.275Z,78.52
2023-03-23T20:19:17.806Z,79.32
2023-03-23T20:21:45.854Z,79.57
2023-03-23T20:24:14.876Z,77.53
2023-03-23T20:26:44.265Z,76.95
2023-03-23T20:29:12.026Z,75.93
2023-03-23T20:31:41.866Z,75.11
2023-03-23T20:34:11.263Z,73.69
2023-03-23T20:36:42.002Z,75.38
2023-03-23T20:39:12.286Z,76.69
2023-03-23T20:41:42.003Z,77.37
2023-03-23T20:44:13.856Z,78.50
2023-03-23T20:46:41.529Z,78.61
2023-03-23T20:49:09.996Z,80.65
2023-03-23T20:51:37.757Z,78.13
2023-03-23T20:54:06.039Z,76.57
2023-03-23T20:56:34.328Z,75.75
2023-03-23T20:59:04.061Z,75.27
2023-03-23T21:01:33.115Z,73.78
2023-03-23T21:04:00.999Z,72.53
2023-03-23T21:06:29.002Z,73.73
2023-03-23T21:08:57.454Z,71.22
2023-03-23T21:11:26.786Z,70.88
2023-03-23T21:13:55.230Z,69.54
2023-03-23T21:16:24.837Z,68.40
2023-03-23T21:18:52.507Z,68.57
2023-03-23T21:21:20.180Z,69.30
2023-03-23T21:23:52.422Z,68.64
2023-03-23T21:26:22.454Z,68.08
2023-03-23T21:28:53.746Z,67.93
2023-03-23T21:31:25.399Z,68.14
2023-03-23T21:33:54.248Z,68.43
2023-03-23T21:36:21.720Z,67.66
2023-03-23T21:38:50.264Z,69.57
2023-03-23T21:41:18.486Z,70.02
2023-03-23T21:43:46.634Z,69.73
2023-03-23T21:46:18.145Z,71.00
2023-03-23T21:48:50.953Z,74.59
2023-03-23T21:51:22.234Z,72.58
2023-03-23T21:53:50.650Z,71.56
2023-03-23T21:56:18.322Z,72.23
2023-03-23T21:58:46.251Z,71.07
2023-03-23T22:01:13.983Z,71.84
2023-03-23T22:03:42.189Z,71.48
2023-03-23T22:06:12.912Z,71.33
2023-03-23T22:08:43.668Z,71.53
2023-03-23T22:11:14.244Z,73.39
2023-03-23T22:13:42.156Z,72.68
2023-03-23T22:16:11.529Z,72.91
2023-03-23T22:18:39.052Z,72.10
2023-03-23T22:21:07.614Z,71.19
2023-03-23T22:23:35.681Z,72.87
2023-03-23T22:26:05.652Z,72.96
2023-03-23T22:28:36.925Z,73.29
2023-03-23T22:31:07.270Z,73.57
2023-03-23T22:33:35.810Z,74.23
2023-03-23T22:36:06.228Z,74.29
2023-03-23T22:38:34.070Z,72.25
2023-03-23T22:41:02.401Z,76.14
2023-03-23T22:43:31.445Z,73.63
2023-03-23T22:45:59.031Z,73.19
2023-03-23T22:48:27.959Z,73.93
2023-03-23T22:50:55.580Z,72.24
2023-03-23T22:53:23.211Z,73.95
2023-03-23T22:55:54.111Z,72.01
2023-03-23T22:58:21.673Z,72.69
2023-03-23T23:00:55.813Z,72.07
2023-03-23T23:03:24.532Z,72.44
2023-03-23T23:05:53.425Z,72.12
2023-03-23T23:08:21.544Z,71.43
2023-03-23T23:10:51.001Z,72.00
2023-03-23T23:13:19.531Z,73.62
2023-03-23T23:15:51.674Z,75.45
2023-03-23T23:18:20.356Z,76.13
2023-03-23T23:20:50.100Z,77.30
2023-03-23T23:23:17.650Z,74.88
2023-03-23T23:25:45.307Z,73.45
2023-03-23T23:28:12.996Z,73.52
2023-03-23T23:30:40.850Z,72.38
2023-03-23T23:33:09.799Z,71.67
2023-03-23T23:35:37.783Z,72.89
2023-03-23T23:38:05.313Z,72.48
2023-03-23T23:40:32.902Z,72.33
2023-03-23T23:43:00.397Z,73.44
2023-03-23T23:45:28.017Z,73.77
2023-03-23T23:47:56.303Z,75.43
2023-03-23T23:50:25.393Z,75.51
2023-03-23T23:52:53.260Z,76.70
2023-03-23T23:55:21.476Z,77.82
2023-03-23T23:57:49.862Z,76.96
